createdAt,value
2022-11-21T00:00:20.238Z,90
2022-11-21T00:01:19.620Z,90
2022-11-21T00:02:20.505Z,90
2022-11-21T00:03:19.641Z,90
2022-11-21T00:04:20.546Z,90
2022-11-21T00:05:19.762Z,90
2022-11-21T00:06:19.884Z,90
2022-11-21T00:07:20.422Z,90
2022-11-21T00:08:19.480Z,90
2022-11-21T00:09:19.836Z,90
2022-11-21T00:10:20.402Z,90
2022-11-21T00:11:19.753Z,90
2022-11-21T00:12:20.085Z,90
2022-11-21T00:13:19.487Z,90
2022-11-21T00:14:19.486Z,90
2022-11-21T00:16:19.967Z,90
2022-11-21T00:17:18.714Z,90
2022-11-21T00:18:18.720Z,90
2022-11-21T00:19:20.022Z,90
2022-11-21T00:20:20.467Z,90
2022-11-21T00:21:19.855Z,90
2022-11-21T00:22:20.191Z,90
2022-11-21T00:23:19.555Z,91
2022-11-21T00:24:19.822Z,90
2022-11-21T00:25:20.206Z,91
2022-11-21T00:26:20.195Z,91
2022-11-21T00:27:19.498Z,91
2022-11-21T00:28:19.757Z,91
2022-11-21T00:29:20.123Z,91
2022-11-21T00:30:19.967Z,91
2022-11-21T00:31:19.786Z,90
2022-11-21T00:32:20.257Z,90
2022-11-21T00:33:19.607Z,90
2022-11-21T00:34:19.977Z,90
2022-11-21T00:35:20.237Z,90
2022-11-21T00:36:19.716Z,90
2022-11-21T00:38:19.581Z,90
2022-11-21T00:41:18.569Z,90
2022-11-21T00:42:19.788Z,90
2022-11-21T00:43:20.140Z,90
2022-11-21T00:44:20.422Z,90
2022-11-21T00:45:26.676Z,90
2022-11-21T00:46:19.661Z,91
2022-11-21T00:47:20.054Z,91
2022-11-21T00:48:19.536Z,90
2022-11-21T00:49:19.752Z,90
2022-11-21T00:50:20.068Z,91
2022-11-21T00:51:20.453Z,91
2022-11-21T00:52:20.340Z,90
2022-11-21T00:53:19.685Z,90
2022-11-21T00:54:19.957Z,90
2022-11-21T00:55:20.402Z,90
2022-11-21T00:56:19.728Z,90
2022-11-21T00:57:20.118Z,90
2022-11-21T00:58:19.629Z,90
2022-11-21T00:59:20.020Z,90
2022-11-21T01:00:19.936Z,90
2022-11-21T01:01:20.401Z,90
2022-11-21T01:02:19.511Z,90
2022-11-21T01:03:19.963Z,90
2022-11-21T01:04:19.917Z,90
2022-11-21T01:05:20.382Z,90
2022-11-21T01:06:19.748Z,90
2022-11-21T01:07:20.248Z,90
2022-11-21T01:08:19.497Z,90
2022-11-21T01:09:19.789Z,90
2022-11-21T01:10:20.127Z,90
2022-11-21T01:11:19.488Z,90
2022-11-21T01:12:20.141Z,91
2022-11-21T01:13:19.650Z,90
2022-11-21T01:14:19.949Z,90
2022-11-21T01:15:20.266Z,90
2022-11-21T01:16:20.353Z,90
2022-11-21T01:17:19.614Z,90
2022-11-21T01:18:19.463Z,90
2022-11-21T01:19:19.894Z,90
2022-11-21T01:20:20.278Z,90
2022-11-21T01:21:19.581Z,90
2022-11-21T01:22:20.474Z,91
2022-11-21T01:23:19.799Z,90
2022-11-21T01:24:19.659Z,90
2022-11-21T01:25:20.154Z,91
2022-11-21T01:27:20.109Z,91
2022-11-21T01:28:18.814Z,91
2022-11-21T01:29:18.639Z,91
2022-11-21T01:31:20.301Z,91
2022-11-21T01:32:19.870Z,91
2022-11-21T01:33:20.371Z,91
2022-11-21T01:34:19.716Z,91
2022-11-21T01:35:20.072Z,91
2022-11-21T01:36:19.683Z,91
2022-11-21T01:39:19.807Z,91
2022-11-21T01:41:19.618Z,91
2022-11-21T01:42:19.676Z,91
2022-11-21T01:43:20.137Z,91
2022-11-21T01:44:19.504Z,90
2022-11-21T01:45:19.980Z,90
2022-11-21T01:46:19.718Z,91
2022-11-21T01:47:19.572Z,90
2022-11-21T01:49:19.140Z,90
2022-11-21T01:50:20.380Z,90
2022-11-21T01:54:19.549Z,90
2022-11-21T01:55:20.047Z,90
2022-11-21T01:56:19.841Z,90
2022-11-21T01:57:19.639Z,90
2022-11-21T01:58:20.055Z,90
2022-11-21T01:59:19.564Z,90
2022-11-21T02:00:20.214Z,90
2022-11-21T02:01:20.339Z,90
2022-11-21T02:02:20.329Z,90
2022-11-21T02:03:19.710Z,90
2022-11-21T02:05:19.858Z,90
2022-11-21T02:07:20.355Z,90
2022-11-21T02:08:19.500Z,90
2022-11-21T02:09:20.102Z,90
2022-11-21T02:10:20.251Z,90
2022-11-21T02:11:19.600Z,90
2022-11-21T02:12:19.607Z,90
2022-11-21T02:13:19.566Z,90
2022-11-21T02:14:18.439Z,90
2022-11-21T02:15:19.251Z,90
2022-11-21T02:16:19.952Z,90
2022-11-21T02:17:20.134Z,90
2022-11-21T02:18:20.269Z,90
2022-11-21T02:19:19.652Z,90
2022-11-21T02:20:20.185Z,90
2022-11-21T02:21:19.570Z,90
2022-11-21T02:22:20.138Z,90
2022-11-21T02:23:19.431Z,90
2022-11-21T02:24:19.868Z,90
2022-11-21T02:25:20.193Z,90
2022-11-21T02:26:19.656Z,90
2022-11-21T02:27:19.893Z,90
2022-11-21T02:28:20.394Z,90
2022-11-21T02:29:19.931Z,90
2022-11-21T02:30:19.952Z,90
2022-11-21T02:31:19.819Z,90
2022-11-21T02:32:19.937Z,90
2022-11-21T02:33:20.299Z,90
2022-11-21T02:34:19.641Z,90
2022-11-21T02:36:19.567Z,90
2022-11-21T02:37:20.430Z,90
2022-11-21T02:38:18.602Z,90
2022-11-21T02:39:18.581Z,90
2022-11-21T02:41:20.217Z,90
2022-11-21T02:42:19.991Z,90
2022-11-21T02:43:20.442Z,90
2022-11-21T02:44:20.125Z,90
2022-11-21T02:45:19.520Z,90
2022-11-21T02:46:20.534Z,90
2022-11-21T02:47:19.752Z,90
2022-11-21T02:48:20.349Z,90
2022-11-21T02:51:20.042Z,90
2022-11-21T02:52:20.031Z,90
2022-11-21T02:53:20.455Z,90
2022-11-21T02:54:19.877Z,90
2022-11-21T02:55:20.206Z,90
2022-11-21T02:56:20.465Z,90
2022-11-21T02:57:19.951Z,90
2022-11-21T02:58:20.009Z,90
2022-11-21T02:59:19.396Z,90
2022-11-21T03:00:18.940Z,90
2022-11-21T03:01:20.474Z,90
2022-11-21T03:02:20.141Z,90
2022-11-21T03:03:20.138Z,90
2022-11-21T03:04:19.969Z,90
2022-11-21T03:05:19.870Z,90
2022-11-21T03:06:20.067Z,90
2022-11-21T03:07:20.709Z,90
2022-11-21T03:08:19.594Z,90
2022-11-21T03:09:20.112Z,90
2022-11-21T03:11:19.943Z,90
2022-11-21T03:12:19.810Z,90
2022-11-21T03:13:20.181Z,90
2022-11-21T03:14:20.243Z,90
2022-11-21T03:15:19.725Z,90
2022-11-21T03:16:20.244Z,90
2022-11-21T03:17:19.646Z,90
2022-11-21T03:18:19.715Z,90
2022-11-21T03:19:20.140Z,90
2022-11-21T03:20:19.954Z,90
2022-11-21T03:21:19.641Z,90
2022-11-21T03:24:20.052Z,90
2022-11-21T03:25:19.908Z,90
2022-11-21T03:27:20.137Z,90
2022-11-21T03:28:20.028Z,90
2022-11-21T03:29:20.343Z,90
2022-11-21T03:30:20.553Z,90
2022-11-21T03:31:20.143Z,90
2022-11-21T03:32:20.325Z,90
2022-11-21T03:34:19.892Z,90
2022-11-21T03:35:20.357Z,90
2022-11-21T03:36:19.524Z,90
2022-11-21T03:37:20.141Z,90
2022-11-21T03:38:20.354Z,90
2022-11-21T03:39:19.650Z,90
2022-11-21T03:40:20.399Z,90
2022-11-21T03:41:19.888Z,90
2022-11-21T03:42:20.542Z,90
2022-11-21T03:43:19.688Z,90
2022-11-21T03:44:19.912Z,90
2022-11-21T03:46:19.809Z,90
2022-11-21T03:48:19.165Z,90
2022-11-21T03:49:20.209Z,90
2022-11-21T03:50:19.645Z,90
2022-11-21T03:51:20.379Z,90
2022-11-21T03:54:19.930Z,90
2022-11-21T03:55:20.443Z,90
2022-11-21T03:56:19.644Z,90
2022-11-21T03:57:20.387Z,90
2022-11-21T03:58:19.713Z,90
2022-11-21T03:59:20.004Z,90
2022-11-21T04:00:20.367Z,90
2022-11-21T04:03:19.996Z,90
2022-11-21T04:04:20.393Z,90
2022-11-21T04:05:19.758Z,90
2022-11-21T04:06:19.774Z,90
2022-11-21T04:07:20.399Z,90
2022-11-21T04:08:20.443Z,90
2022-11-21T04:09:19.917Z,90
2022-11-21T04:10:20.221Z,90
2022-11-21T04:11:19.653Z,90
2022-11-21T04:12:19.118Z,90
2022-11-21T04:13:19.521Z,90
2022-11-21T04:14:18.981Z,90
2022-11-21T04:15:20.378Z,90
2022-11-21T04:16:19.912Z,90
2022-11-21T04:17:19.831Z,90
2022-11-21T04:18:20.410Z,90
2022-11-21T04:19:19.656Z,90
2022-11-21T04:20:19.759Z,90
2022-11-21T04:23:20.411Z,90
2022-11-21T04:24:19.878Z,90
2022-11-21T04:25:20.460Z,90
2022-11-21T04:26:19.854Z,90
2022-11-21T04:27:20.112Z,90
2022-11-21T04:28:20.380Z,90
2022-11-21T04:31:20.383Z,90
2022-11-21T04:32:20.079Z,90
2022-11-21T04:33:20.512Z,90
2022-11-21T04:34:20.326Z,90
2022-11-21T04:35:19.894Z,90
2022-11-21T04:37:20.540Z,90
2022-11-21T04:38:19.600Z,90
2022-11-21T04:39:20.107Z,90
2022-11-21T04:40:20.478Z,90
2022-11-21T04:41:20.476Z,90
2022-11-21T04:42:19.794Z,90
2022-11-21T04:44:19.894Z,90
2022-11-21T04:45:20.397Z,90
2022-11-21T04:46:19.715Z,90
2022-11-21T04:47:20.003Z,90
2022-11-21T04:48:20.382Z,90
2022-11-21T04:49:19.691Z,90
2022-11-21T04:50:20.215Z,90
2022-11-21T04:51:19.577Z,90
2022-11-21T04:52:20.050Z,90
2022-11-21T04:53:18.795Z,90
2022-11-21T04:54:20.299Z,90
2022-11-21T04:55:19.609Z,90
2022-11-21T04:56:20.273Z,90
2022-11-21T04:57:19.636Z,90
2022-11-21T04:59:20.375Z,90
2022-11-21T05:00:26.620Z,90
2022-11-21T05:01:20.041Z,90
2022-11-21T05:02:20.174Z,90
2022-11-21T05:03:20.412Z,90
2022-11-21T05:04:19.823Z,90
2022-11-21T05:05:20.438Z,90
2022-11-21T05:06:19.698Z,90
2022-11-21T05:07:20.373Z,90
2022-11-21T05:08:20.372Z,90
2022-11-21T05:09:19.587Z,90
2022-11-21T05:10:20.165Z,90
2022-11-21T05:11:20.497Z,90
2022-11-21T05:12:20.417Z,90
2022-11-21T05:13:20.061Z,90
2022-11-21T05:14:20.265Z,90
2022-11-21T05:15:26.461Z,90
2022-11-21T05:16:20.372Z,90
2022-11-21T05:17:19.622Z,90
2022-11-21T05:18:20.119Z,90
2022-11-21T05:19:19.232Z,90
2022-11-21T05:20:20.462Z,90
2022-11-21T05:21:19.848Z,90
2022-11-21T05:22:19.843Z,90
2022-11-21T05:23:20.076Z,91
2022-11-21T05:24:19.692Z,90
2022-11-21T05:25:20.009Z,90
2022-11-21T05:26:20.040Z,90
2022-11-21T05:27:20.345Z,90
2022-11-21T05:28:19.848Z,90
2022-11-21T05:29:22.707Z,90
2022-11-21T05:30:20.275Z,90
2022-11-21T05:31:20.446Z,90
2022-11-21T05:32:20.047Z,90
2022-11-21T05:33:20.316Z,90
2022-11-21T05:34:20.467Z,90
2022-11-21T05:36:19.882Z,90
2022-11-21T05:37:20.200Z,90
2022-11-21T05:38:19.578Z,90
2022-11-21T05:39:19.894Z,90
2022-11-21T05:40:20.117Z,90
2022-11-21T05:41:19.082Z,90
2022-11-21T05:42:19.213Z,90
2022-11-21T05:44:20.171Z,90
2022-11-21T05:45:20.545Z,91
2022-11-21T05:46:20.025Z,91
2022-11-21T05:47:20.389Z,90
2022-11-21T05:48:20.070Z,90
2022-11-21T05:49:20.442Z,90
2022-11-21T05:50:19.701Z,90
2022-11-21T05:51:20.127Z,91
2022-11-21T05:52:19.683Z,91
2022-11-21T05:53:20.275Z,91
2022-11-21T05:54:19.800Z,91
2022-11-21T05:55:20.203Z,91
2022-11-21T05:56:19.695Z,91
2022-11-21T05:57:20.093Z,91
2022-11-21T05:58:20.003Z,91
2022-11-21T05:59:20.523Z,91
2022-11-21T06:00:19.743Z,91
2022-11-21T06:01:19.660Z,91
2022-11-21T06:02:19.758Z,91
2022-11-21T06:03:20.282Z,91
2022-11-21T06:04:20.243Z,91
2022-11-21T06:05:19.948Z,91
2022-11-21T06:06:27.198Z,91
2022-11-21T06:07:20.241Z,91
2022-11-21T06:08:19.951Z,91
2022-11-21T06:09:20.164Z,91
2022-11-21T06:10:19.666Z,91
2022-11-21T06:11:19.999Z,91
2022-11-21T06:12:25.738Z,91
2022-11-21T06:13:19.830Z,91
2022-11-21T06:14:19.908Z,91
2022-11-21T06:15:20.326Z,91
2022-11-21T06:16:20.072Z,91
2022-11-21T06:17:20.567Z,91
2022-11-21T06:18:19.882Z,91
2022-11-21T06:19:20.092Z,91
2022-11-21T06:20:19.640Z,91
2022-11-21T06:22:20.325Z,91
2022-11-21T06:23:19.645Z,91
2022-11-21T06:24:26.730Z,91
2022-11-21T06:25:19.900Z,91
2022-11-21T06:27:19.002Z,91
2022-11-21T06:28:20.407Z,91
2022-11-21T06:29:19.787Z,91
2022-11-21T06:30:26.606Z,91
2022-11-21T06:32:20.215Z,91
2022-11-21T06:33:20.028Z,91
2022-11-21T06:34:19.878Z,91
2022-11-21T06:35:20.345Z,91
2022-11-21T06:36:19.839Z,91
2022-11-21T06:37:19.967Z,91
2022-11-21T06:38:19.614Z,91
2022-11-21T06:39:19.950Z,91
2022-11-21T06:40:20.396Z,91
2022-11-21T06:41:19.790Z,91
2022-11-21T06:42:20.120Z,91
2022-11-21T06:43:20.552Z,91
2022-11-21T06:44:19.770Z,91
2022-11-21T06:45:20.435Z,91
2022-11-21T06:46:19.592Z,91
2022-11-21T06:47:19.642Z,91
2022-11-21T06:48:18.865Z,91
2022-11-21T06:49:18.634Z,91
2022-11-21T06:50:20.354Z,91
2022-11-21T06:51:19.982Z,91
2022-11-21T06:52:19.820Z,91
2022-11-21T06:54:23.324Z,91
2022-11-21T06:55:20.179Z,91
2022-11-21T06:57:20.077Z,91
2022-11-21T06:58:20.066Z,91
2022-11-21T06:59:20.101Z,91
2022-11-21T07:00:20.607Z,91
2022-11-21T07:01:20.675Z,91
2022-11-21T07:02:19.660Z,91
2022-11-21T07:03:19.836Z,91
2022-11-21T07:04:20.204Z,91
2022-11-21T07:06:19.910Z,91
2022-11-21T07:08:19.932Z,91
2022-11-21T07:09:51.236Z,91
2022-11-21T07:11:36.101Z,91
2022-11-21T07:12:20.386Z,91
2022-11-21T07:14:19.872Z,91
2022-11-21T07:15:20.286Z,91
2022-11-21T07:16:19.810Z,91
2022-11-21T07:18:20.135Z,91
2022-11-21T07:19:20.253Z,91
2022-11-21T07:20:19.909Z,91
2022-11-21T07:21:19.817Z,91
2022-11-21T07:22:19.633Z,91
2022-11-21T07:23:20.270Z,91
2022-11-21T07:24:19.553Z,91
2022-11-21T07:25:20.345Z,91
2022-11-21T07:26:19.663Z,91
2022-11-21T07:27:20.481Z,91
2022-11-21T07:28:19.865Z,91
2022-11-21T07:29:20.202Z,91
2022-11-21T07:30:19.625Z,91
2022-11-21T07:31:20.792Z,91
2022-11-21T07:32:20.494Z,91
2022-11-21T07:33:19.838Z,91
2022-11-21T07:34:20.256Z,91
2022-11-21T07:35:19.701Z,91
2022-11-21T07:36:19.794Z,91
2022-11-21T07:37:20.281Z,91
2022-11-21T07:38:19.562Z,91
2022-11-21T07:39:20.083Z,91
2022-11-21T07:40:20.563Z,91
2022-11-21T07:41:19.800Z,91
2022-11-21T07:42:20.268Z,91
2022-11-21T07:43:20.080Z,91
2022-11-21T07:44:19.647Z,91
2022-11-21T07:45:20.356Z,91
2022-11-21T07:46:19.709Z,91
2022-11-21T07:47:20.545Z,91
2022-11-21T07:48:19.566Z,91
2022-11-21T07:49:19.949Z,91
2022-11-21T07:50:20.541Z,91
2022-11-21T07:51:20.267Z,91
2022-11-21T07:52:19.686Z,91
2022-11-21T07:53:20.441Z,91
2022-11-21T07:54:19.837Z,91
2022-11-21T07:55:19.852Z,91
2022-11-21T07:56:20.196Z,91
2022-11-21T07:57:19.519Z,91
2022-11-21T07:58:19.648Z,91
2022-11-21T07:59:20.121Z,91
2022-11-21T08:00:19.801Z,91
2022-11-21T08:01:20.231Z,91
2022-11-21T08:02:20.460Z,91
2022-11-21T08:03:19.787Z,91
2022-11-21T08:05:19.680Z,91
2022-11-21T08:06:20.156Z,91
2022-11-21T08:07:20.731Z,91
2022-11-21T08:08:19.816Z,91
2022-11-21T08:09:20.277Z,91
2022-11-21T08:10:19.429Z,91
2022-11-21T08:11:18.975Z,91
2022-11-21T08:12:18.742Z,91
2022-11-21T08:13:20.071Z,91
2022-11-21T08:14:18.908Z,91
2022-11-21T08:15:19.965Z,91
2022-11-21T08:17:20.270Z,91
2022-11-21T08:18:19.727Z,91
2022-11-21T08:19:19.592Z,91
2022-11-21T08:20:20.054Z,91
2022-11-21T08:21:24.767Z,91
2022-11-21T08:22:20.136Z,91
2022-11-21T08:23:19.812Z,91
2022-11-21T08:24:20.079Z,91
2022-11-21T08:25:20.374Z,91
2022-11-21T08:26:19.800Z,91
2022-11-21T08:27:20.053Z,91
2022-11-21T08:28:20.412Z,91
2022-11-21T08:29:19.880Z,91
2022-11-21T08:30:20.296Z,91
2022-11-21T08:31:20.608Z,91
2022-11-21T08:32:19.829Z,91
2022-11-21T08:35:19.923Z,91
2022-11-21T08:36:20.352Z,91
2022-11-21T08:37:19.754Z,91
2022-11-21T08:38:20.112Z,91
2022-11-21T08:39:19.988Z,91
2022-11-21T08:42:20.470Z,91
2022-11-21T08:44:20.729Z,91
2022-11-21T08:45:19.995Z,91
2022-11-21T08:46:19.954Z,91
2022-11-21T08:47:20.536Z,91
2022-11-21T08:48:19.837Z,91
2022-11-21T08:49:20.389Z,91
2022-11-21T08:50:19.771Z,91
2022-11-21T08:51:19.805Z,91
2022-11-21T08:52:20.309Z,91
2022-11-21T08:53:19.892Z,91
2022-11-21T08:54:20.362Z,91
2022-11-21T08:55:20.297Z,91
2022-11-21T08:56:19.686Z,90
2022-11-21T08:57:20.143Z,90
2022-11-21T08:58:20.633Z,91
2022-11-21T08:59:19.837Z,91
2022-11-21T09:00:19.602Z,91
2022-11-21T09:01:20.958Z,90
2022-11-21T09:02:20.252Z,90
2022-11-21T09:03:33.077Z,91
2022-11-21T09:04:19.969Z,91
2022-11-21T09:05:20.216Z,91
2022-11-21T09:06:20.049Z,91
2022-11-21T09:07:20.562Z,91
2022-11-21T09:08:19.671Z,91
2022-11-21T09:09:27.353Z,91
2022-11-21T09:10:19.625Z,91
2022-11-21T09:11:20.085Z,91
2022-11-21T09:12:20.607Z,91
2022-11-21T09:13:19.978Z,91
2022-11-21T09:14:20.307Z,91
2022-11-21T09:15:20.462Z,91
2022-11-21T09:16:26.508Z,91
2022-11-21T09:17:20.370Z,91
2022-11-21T09:18:19.739Z,91
2022-11-21T09:19:19.696Z,91
2022-11-21T09:20:19.851Z,91
2022-11-21T09:22:19.499Z,91
2022-11-21T09:23:20.291Z,91
2022-11-21T09:24:20.184Z,91
2022-11-21T09:25:18.978Z,91
2022-11-21T09:26:20.299Z,91
2022-11-21T09:27:19.989Z,91
2022-11-21T09:28:20.315Z,91
2022-11-21T09:29:20.285Z,91
2022-11-21T09:30:20.540Z,91
2022-11-21T09:31:20.421Z,91
2022-11-21T09:32:19.818Z,91
2022-11-21T09:33:19.675Z,91
2022-11-21T09:34:19.738Z,91
2022-11-21T09:35:20.085Z,91
2022-11-21T09:36:20.487Z,91
2022-11-21T09:37:20.308Z,91
2022-11-21T09:40:20.434Z,91
2022-11-21T09:41:19.656Z,91
2022-11-21T09:42:20.138Z,91
2022-11-21T09:43:20.503Z,91
2022-11-21T09:44:19.925Z,91
2022-11-21T09:45:20.398Z,91
2022-11-21T09:46:19.802Z,90
2022-11-21T09:47:20.226Z,90
2022-11-21T09:48:20.607Z,90
2022-11-21T09:49:19.663Z,90
2022-11-21T09:50:20.049Z,90
2022-11-21T09:51:20.580Z,90
2022-11-21T09:52:18.764Z,90
2022-11-21T09:53:20.345Z,90
2022-11-21T09:56:20.384Z,90
2022-11-21T09:57:20.423Z,90
2022-11-21T10:00:20.653Z,90
2022-11-21T10:01:20.679Z,90
2022-11-21T10:02:20.307Z,90
2022-11-21T10:03:26.668Z,90
2022-11-21T10:04:20.128Z,90
2022-11-21T10:05:19.984Z,90
2022-11-21T10:06:20.299Z,90
2022-11-21T10:07:20.003Z,90
2022-11-21T10:08:20.035Z,90
2022-11-21T10:09:20.427Z,90
2022-11-21T10:10:19.954Z,90
2022-11-21T10:11:25.695Z,90
2022-11-21T10:12:20.579Z,90
2022-11-21T10:13:19.302Z,90
2022-11-21T10:15:18.782Z,90
2022-11-21T10:16:19.940Z,90
2022-11-21T10:17:20.235Z,90
2022-11-21T10:18:20.600Z,90
2022-11-21T10:19:20.153Z,90
2022-11-21T10:20:20.728Z,90
2022-11-21T10:21:19.782Z,90
2022-11-21T10:22:20.219Z,90
2022-11-21T10:23:20.607Z,90
2022-11-21T10:24:19.978Z,90
2022-11-21T10:25:26.825Z,90
2022-11-21T10:26:19.873Z,89
2022-11-21T10:27:20.237Z,89
2022-11-21T10:29:19.982Z,89
2022-11-21T10:30:20.457Z,89
2022-11-21T10:31:19.732Z,89
2022-11-21T10:32:20.206Z,89
2022-11-21T10:33:19.671Z,89
2022-11-21T10:34:19.527Z,89
2022-11-21T10:35:19.285Z,88
2022-11-21T10:36:19.771Z,88
2022-11-21T10:38:20.385Z,88
2022-11-21T10:39:19.915Z,88
2022-11-21T10:40:20.360Z,88
2022-11-21T10:41:20.267Z,88
2022-11-21T10:42:26.622Z,88
2022-11-21T10:43:20.106Z,88
2022-11-21T10:44:20.363Z,88
2022-11-21T10:45:20.132Z,88
2022-11-21T10:46:20.399Z,88
2022-11-21T10:47:19.846Z,88
2022-11-21T10:48:20.188Z,87
2022-11-21T10:49:20.637Z,87
2022-11-21T10:50:19.929Z,87
2022-11-21T10:51:20.261Z,87
2022-11-21T10:52:20.616Z,87
2022-11-21T10:53:19.662Z,87
2022-11-21T10:54:20.164Z,87
2022-11-21T10:55:20.524Z,86
2022-11-21T10:56:19.807Z,86
2022-11-21T10:57:20.081Z,86
2022-11-21T10:58:19.820Z,86
2022-11-21T10:59:20.132Z,85
2022-11-21T11:00:20.467Z,85
2022-11-21T11:01:20.447Z,85
2022-11-21T11:02:19.924Z,85
2022-11-21T11:03:20.259Z,85
2022-11-21T11:04:57.113Z,84
2022-11-21T11:05:20.357Z,84
2022-11-21T11:06:19.998Z,84
2022-11-21T11:07:20.123Z,83
2022-11-21T11:08:20.238Z,83
2022-11-21T11:09:22.184Z,83
2022-11-21T11:10:27.433Z,83
2022-11-21T11:11:20.275Z,83
2022-11-21T11:13:53.378Z,83
2022-11-21T11:15:19.683Z,82
2022-11-21T11:16:19.669Z,82
2022-11-21T11:17:20.430Z,83
2022-11-21T11:18:19.979Z,82
2022-11-21T11:19:21.549Z,82
2022-11-21T11:20:20.159Z,82
2022-11-21T11:21:20.144Z,82
2022-11-21T11:22:18.733Z,81
2022-11-21T11:23:20.264Z,81
2022-11-21T11:24:20.403Z,81
2022-11-21T11:25:20.012Z,81
2022-11-21T11:26:20.098Z,81
2022-11-21T11:27:20.114Z,81
2022-11-21T11:28:20.553Z,81
2022-11-21T11:29:20.365Z,81
2022-11-21T11:30:19.973Z,81
2022-11-21T11:31:20.134Z,80
2022-11-21T11:32:26.903Z,80
2022-11-21T11:33:20.386Z,80
2022-11-21T11:34:20.589Z,80
2022-11-21T11:35:20.075Z,80
2022-11-21T11:36:20.465Z,80
2022-11-21T11:37:19.894Z,79
2022-11-21T11:38:20.302Z,79
2022-11-21T11:39:19.636Z,79
2022-11-21T11:41:20.462Z,80
2022-11-21T11:42:23.033Z,80
2022-11-21T11:43:20.323Z,80
2022-11-21T11:44:20.404Z,80
2022-11-21T11:45:18.710Z,80
2022-11-21T11:46:20.315Z,80
2022-11-21T11:47:19.545Z,80
2022-11-21T11:48:20.118Z,80
2022-11-21T11:49:27.532Z,80
2022-11-21T11:50:20.021Z,80
2022-11-21T11:51:20.406Z,80
2022-11-21T11:52:19.863Z,80
2022-11-21T11:53:20.188Z,80
2022-11-21T11:54:20.247Z,80
2022-11-21T11:55:20.576Z,79
2022-11-21T11:57:20.359Z,79
2022-11-21T11:58:20.141Z,79
2022-11-21T12:01:19.670Z,79
2022-11-21T12:02:20.322Z,79
2022-11-21T12:03:20.180Z,79
2022-11-21T12:04:18.934Z,79
2022-11-21T12:05:19.736Z,79
2022-11-21T12:06:20.107Z,79
2022-11-21T12:08:43.939Z,79
2022-11-21T12:08:47.816Z,79
2022-11-21T12:10:19.822Z,79
2022-11-21T12:11:27.179Z,79
2022-11-21T12:13:19.980Z,79
2022-11-21T12:14:20.573Z,79
2022-11-21T12:15:20.065Z,79
2022-11-21T12:16:20.691Z,80
2022-11-21T12:17:19.869Z,80
2022-11-21T12:18:20.119Z,80
2022-11-21T12:19:20.435Z,80
2022-11-21T12:20:19.799Z,80
2022-11-21T12:21:20.159Z,80
2022-11-21T12:22:20.621Z,80
2022-11-21T12:25:20.233Z,80
2022-11-21T12:26:20.151Z,80
2022-11-21T12:27:20.485Z,80
2022-11-21T12:28:20.582Z,80
2022-11-21T12:29:19.754Z,80
2022-11-21T12:30:19.997Z,80
2022-11-21T12:31:20.250Z,80
2022-11-21T12:32:20.232Z,80
2022-11-21T12:33:20.503Z,80
2022-11-21T12:34:20.031Z,80
2022-11-21T12:35:20.497Z,80
2022-11-21T12:36:24.841Z,80
2022-11-21T12:37:19.967Z,80
2022-11-21T12:38:20.357Z,80
2022-11-21T12:39:19.777Z,80
2022-11-21T12:41:19.679Z,80
2022-11-21T12:42:19.582Z,80
2022-11-21T12:43:20.032Z,80
2022-11-21T12:44:20.386Z,80
2022-11-21T12:45:20.316Z,80
2022-11-21T12:46:20.332Z,80
2022-11-21T12:47:20.629Z,80
2022-11-21T12:48:20.102Z,80
2022-11-21T12:49:19.183Z,80
2022-11-21T12:50:20.469Z,80
2022-11-21T12:51:19.816Z,80
2022-11-21T12:52:20.137Z,80
2022-11-21T12:53:19.664Z,80
2022-11-21T12:54:20.033Z,80
2022-11-21T12:55:20.304Z,80
2022-11-21T12:56:20.571Z,80
2022-11-21T12:57:19.261Z,80
2022-11-21T12:58:19.976Z,80
2022-11-21T12:59:20.328Z,80
2022-11-21T13:00:20.238Z,80
2022-11-21T13:03:20.314Z,80
2022-11-21T13:05:20.602Z,80
2022-11-21T13:06:20.098Z,79
2022-11-21T13:07:20.757Z,79
2022-11-21T13:08:27.025Z,79
2022-11-21T13:09:20.469Z,79
2022-11-21T13:11:20.446Z,79
2022-11-21T13:12:19.797Z,79
2022-11-21T13:13:20.301Z,79
2022-11-21T13:14:19.692Z,79
2022-11-21T13:15:20.198Z,79
2022-11-21T13:16:20.016Z,79
2022-11-21T13:17:20.652Z,79
2022-11-21T13:18:19.833Z,79
2022-11-21T13:19:19.198Z,79
2022-11-21T13:20:20.595Z,79
2022-11-21T13:21:18.783Z,79
2022-11-21T13:24:20.131Z,79
2022-11-21T13:25:20.355Z,79
2022-11-21T13:26:19.896Z,79
2022-11-21T13:27:20.024Z,79
2022-11-21T13:28:20.475Z,79
2022-11-21T13:29:19.787Z,79
2022-11-21T13:30:20.052Z,79
2022-11-21T13:31:19.814Z,79
2022-11-21T13:32:20.164Z,79
2022-11-21T13:33:25.410Z,79
2022-11-21T13:35:21.257Z,79
2022-11-21T13:36:20.056Z,79
2022-11-21T13:37:20.451Z,79
2022-11-21T13:38:19.832Z,79
2022-11-21T13:39:20.166Z,79
2022-11-21T13:40:20.427Z,79
2022-11-21T13:41:19.357Z,79
2022-11-21T13:42:26.045Z,79
2022-11-21T13:43:50.281Z,78
2022-11-21T13:48:20.685Z,78
2022-11-21T13:49:19.719Z,78
2022-11-21T13:50:20.109Z,78
2022-11-21T13:51:19.616Z,78
2022-11-21T13:52:20.056Z,78
2022-11-21T13:53:20.197Z,78
2022-11-21T13:54:20.579Z,78
2022-11-21T13:55:19.775Z,78
2022-11-21T13:56:20.262Z,78
2022-11-21T13:57:20.565Z,78
2022-11-21T13:58:20.073Z,78
2022-11-21T13:59:19.736Z,78
2022-11-21T14:00:25.874Z,78
2022-11-21T14:02:20.107Z,78
2022-11-21T14:03:19.336Z,78
2022-11-21T14:04:18.956Z,79
2022-11-21T14:05:20.462Z,79
2022-11-21T14:06:19.915Z,78
2022-11-21T14:07:20.285Z,78
2022-11-21T14:08:20.720Z,79
2022-11-21T14:09:20.218Z,79
2022-11-21T14:10:20.491Z,79
2022-11-21T14:11:19.679Z,79
2022-11-21T14:12:20.064Z,79
2022-11-21T14:13:19.765Z,79
2022-11-21T14:14:20.261Z,79
2022-11-21T14:15:19.825Z,79
2022-11-21T14:16:20.094Z,79
2022-11-21T14:17:19.787Z,79
2022-11-21T14:18:20.161Z,79
2022-11-21T14:19:19.849Z,79
2022-11-21T14:20:20.200Z,79
2022-11-21T14:21:19.892Z,79
2022-11-21T14:22:20.222Z,79
2022-11-21T14:23:20.511Z,79
2022-11-21T14:24:19.719Z,79
2022-11-21T14:25:20.195Z,79
2022-11-21T14:26:19.240Z,79
2022-11-21T14:27:19.836Z,79
2022-11-21T14:28:19.784Z,79
2022-11-21T14:29:20.331Z,80
2022-11-21T14:30:20.745Z,80
2022-11-21T14:31:20.636Z,80
2022-11-21T14:32:20.041Z,80
2022-11-21T14:33:20.564Z,80
2022-11-21T14:34:19.784Z,80
2022-11-21T14:35:19.669Z,80
2022-11-21T14:36:20.657Z,80
2022-11-21T14:37:20.388Z,80
2022-11-21T14:38:19.810Z,80
2022-11-21T14:39:55.539Z,80
2022-11-21T14:40:20.601Z,80
2022-11-21T14:41:19.950Z,80
2022-11-21T14:42:20.395Z,80
2022-11-21T14:43:19.694Z,81
2022-11-21T14:44:20.152Z,81
2022-11-21T14:45:20.634Z,81
2022-11-21T14:46:20.591Z,80
2022-11-21T14:48:20.373Z,80
2022-11-21T14:49:20.302Z,80
2022-11-21T14:50:20.666Z,80
2022-11-21T14:51:19.953Z,80
2022-11-21T14:52:20.631Z,80
2022-11-21T14:53:20.045Z,80
2022-11-21T14:54:20.498Z,80
2022-11-21T14:55:37.497Z,81
2022-11-21T14:56:20.050Z,81
2022-11-21T14:59:20.150Z,80
2022-11-21T15:01:12.566Z,80
2022-11-21T15:01:20.600Z,81
2022-11-21T15:02:19.969Z,81
2022-11-21T15:03:20.751Z,81
2022-11-21T15:06:20.565Z,81
2022-11-21T15:07:20.059Z,81
2022-11-21T15:11:18.858Z,82
2022-11-21T15:12:18.898Z,82
2022-11-21T15:13:19.024Z,82
2022-11-21T15:15:19.864Z,82
2022-11-21T15:16:19.693Z,82
2022-11-21T15:17:19.717Z,82
2022-11-21T15:18:36.233Z,82
2022-11-21T15:19:20.618Z,82
2022-11-21T15:20:20.380Z,82
2022-11-21T15:22:19.782Z,82
2022-11-21T15:23:20.269Z,82
2022-11-21T15:24:20.630Z,82
2022-11-21T15:25:20.029Z,82
2022-11-21T15:26:20.274Z,82
2022-11-21T15:27:19.848Z,83
2022-11-21T15:28:20.188Z,83
2022-11-21T15:30:19.884Z,83
2022-11-21T15:32:23.159Z,83
2022-11-21T15:33:18.724Z,83
2022-11-21T15:34:41.443Z,83
2022-11-21T15:35:19.843Z,83
2022-11-21T15:36:19.755Z,83
2022-11-21T15:37:20.342Z,83
2022-11-21T15:38:20.628Z,83
2022-11-21T15:39:20.567Z,83
2022-11-21T15:40:19.726Z,83
2022-11-21T15:41:20.089Z,83
2022-11-21T15:42:19.644Z,83
2022-11-21T15:45:26.083Z,83
2022-11-21T15:46:20.397Z,83
2022-11-21T15:47:19.640Z,83
2022-11-21T15:48:20.520Z,83
2022-11-21T15:50:20.318Z,84
2022-11-21T15:52:13.795Z,84
2022-11-21T15:52:20.012Z,84
2022-11-21T15:53:20.406Z,84
2022-11-21T15:54:19.740Z,84
2022-11-21T15:56:27.542Z,84
2022-11-21T15:58:23.918Z,84
2022-11-21T15:59:19.976Z,84
2022-11-21T16:00:20.378Z,84
2022-11-21T16:01:20.375Z,84